createdAt,value
2022-08-12T00:00:15.152Z,18.10
2022-08-12T00:02:42.442Z,18.00
2022-08-12T00:05:10.752Z,18.10
2022-08-12T00:10:26.606Z,18.00
2022-08-12T00:15:46.196Z,18.00
2022-08-12T00:21:00.394Z,18.00
2022-08-12T00:26:23.546Z,17.80
2022-08-12T00:31:41.012Z,17.80
2022-08-12T00:37:05.501Z,17.80
2022-08-12T00:39:41.217Z,17.70
2022-08-12T00:44:56.722Z,17.70
2022-08-12T00:47:25.421Z,17.60
2022-08-12T00:49:54.371Z,17.60
2022-08-12T00:52:22.345Z,17.50
2022-08-12T00:57:46.129Z,17.30
2022-08-12T01:00:17.644Z,17.20
2022-08-12T01:02:49.697Z,17.20
2022-08-12T01:05:22.254Z,17.10
2022-08-12T01:07:49.819Z,17.00
2022-08-12T01:10:16.896Z,17.00
2022-08-12T01:15:31.034Z,16.90
2022-08-12T01:20:53.498Z,16.80
2022-08-12T01:23:57.933Z,16.70
2022-08-12T01:26:25.926Z,16.60
2022-08-12T01:28:58.619Z,16.70
2022-08-12T01:31:29.848Z,16.80
2022-08-12T01:34:02.504Z,16.90
2022-08-12T01:36:41.876Z,16.90
2022-08-12T01:39:08.764Z,16.80
2022-08-12T01:41:55.116Z,16.80
2022-08-12T01:44:23.135Z,16.70
2022-08-12T01:50:19.169Z,16.80
2022-08-12T01:52:55.822Z,16.80
2022-08-12T01:55:30.175Z,16.70
2022-08-12T02:01:04.464Z,16.80
2022-08-12T02:12:56.867Z,16.60
2022-08-12T02:15:53.158Z,16.60
2022-08-12T02:18:41.004Z,16.50
2022-08-12T02:21:20.029Z,16.50
2022-08-12T02:23:47.827Z,16.40
2022-08-12T02:26:17.347Z,16.40
2022-08-12T02:28:45.388Z,16.40
2022-08-12T02:31:13.409Z,16.30
2022-08-12T02:33:41.017Z,16.30
2022-08-12T02:36:08.095Z,16.30
2022-08-12T02:38:36.725Z,16.30
2022-08-12T02:41:05.227Z,16.30
2022-08-12T02:43:41.372Z,16.30
2022-08-12T02:46:14.433Z,16.30
2022-08-12T02:48:51.218Z,16.30
2022-08-12T02:51:22.602Z,16.20
2022-08-12T02:54:04.725Z,16.20
2022-08-12T02:56:38.060Z,16.10
2022-08-12T02:59:05.431Z,16.10
2022-08-12T03:01:34.460Z,16.10
2022-08-12T03:06:58.258Z,16.00
2022-08-12T03:09:30.749Z,16.00
2022-08-12T03:12:07.032Z,16.00
2022-08-12T03:14:38.508Z,16.00
2022-08-12T03:20:10.274Z,16.00
2022-08-12T03:22:39.492Z,16.00
2022-08-12T03:25:08.205Z,16.00
2022-08-12T03:27:38.256Z,16.00
2022-08-12T03:30:05.622Z,15.90
2022-08-12T03:32:36.256Z,15.90
2022-08-12T03:35:04.698Z,16.00
2022-08-12T03:37:35.380Z,15.90
2022-08-12T03:42:50.126Z,15.90
2022-08-12T03:45:27.775Z,15.90
2022-08-12T03:47:59.035Z,15.90
2022-08-12T03:50:26.498Z,15.90
2022-08-12T03:52:53.406Z,15.80
2022-08-12T03:55:20.563Z,15.80
2022-08-12T03:57:49.268Z,15.90
2022-08-12T04:00:24.159Z,15.90
2022-08-12T04:02:52.636Z,15.90
2022-08-12T04:05:21.418Z,15.90
2022-08-12T04:07:58.076Z,15.90
2022-08-12T04:10:28.440Z,15.90
2022-08-12T04:12:58.196Z,15.90
2022-08-12T04:18:14.981Z,15.90
2022-08-12T04:20:42.956Z,15.90
2022-08-12T04:25:57.921Z,15.90
2022-08-12T04:31:13.785Z,16.00
2022-08-12T04:33:40.785Z,16.00
2022-08-12T04:36:08.201Z,16.00
2022-08-12T04:38:36.145Z,16.10
2022-08-12T04:41:03.920Z,16.00
2022-08-12T04:43:53.896Z,16.10
2022-08-12T04:49:05.231Z,16.20
2022-08-12T04:51:33.290Z,16.30
2022-08-12T04:54:00.367Z,16.30
2022-08-12T04:56:27.443Z,16.40
2022-08-12T04:59:02.164Z,16.30
2022-08-12T05:01:29.279Z,16.40
2022-08-12T05:03:57.756Z,16.40
2022-08-12T05:06:26.910Z,16.50
2022-08-12T05:08:57.756Z,16.50
2022-08-12T05:11:25.072Z,16.50
2022-08-12T05:13:59.590Z,16.50
2022-08-12T05:16:27.173Z,16.60
2022-08-12T05:21:45.992Z,16.70
2022-08-12T05:24:12.816Z,16.90
2022-08-12T05:26:39.577Z,16.90
2022-08-12T05:30:05.038Z,17.00
2022-08-12T05:31:53.227Z,17.10
2022-08-12T05:34:22.778Z,17.10
2022-08-12T05:36:53.054Z,17.30
2022-08-12T05:39:19.859Z,17.30
2022-08-12T05:41:46.738Z,17.40
2022-08-12T05:44:13.531Z,17.40
2022-08-12T05:46:40.341Z,17.50
2022-08-12T05:51:53.836Z,17.60
2022-08-12T05:54:35.329Z,17.70
2022-08-12T05:59:54.111Z,17.90
2022-08-12T06:05:08.091Z,18.10
2022-08-12T06:08:01.199Z,18.20
2022-08-12T06:10:32.708Z,18.30
2022-08-12T06:13:07.530Z,18.40
2022-08-12T06:15:36.235Z,18.50
2022-08-12T06:18:14.144Z,18.60
2022-08-12T06:20:43.652Z,18.70
2022-08-12T06:23:10.728Z,18.80
2022-08-12T06:25:37.858Z,18.90
2022-08-12T06:31:24.732Z,19.10
2022-08-12T06:34:00.797Z,19.10
2022-08-12T06:36:35.843Z,19.20
2022-08-12T06:39:04.692Z,19.40
2022-08-12T06:42:05.008Z,19.60
2022-08-12T06:44:29.026Z,19.70
2022-08-12T06:46:56.822Z,19.80
2022-08-12T06:49:25.279Z,19.90
2022-08-12T06:51:54.464Z,20.00
2022-08-12T06:54:30.943Z,20.20
2022-08-12T06:57:05.388Z,20.20
2022-08-12T06:59:49.812Z,20.40
2022-08-12T07:02:16.639Z,20.40
2022-08-12T07:04:43.432Z,20.50
2022-08-12T07:07:10.925Z,20.60
2022-08-12T07:10:06.560Z,20.70
2022-08-12T07:12:28.817Z,20.70
2022-08-12T07:14:57.658Z,20.90
2022-08-12T07:17:25.061Z,21.00
2022-08-12T07:22:38.930Z,21.30
2022-08-12T07:25:06.231Z,21.50
2022-08-12T07:27:41.347Z,21.60
2022-08-12T07:30:09.257Z,21.70
2022-08-12T07:32:36.085Z,21.70
2022-08-12T07:35:02.900Z,21.80
2022-08-12T07:40:17.549Z,21.90
2022-08-12T07:42:45.479Z,21.90
2022-08-12T07:45:13.460Z,21.90
2022-08-12T07:47:41.375Z,22.10
2022-08-12T07:50:09.343Z,22.10
2022-08-12T07:55:28.030Z,22.30
2022-08-12T07:57:58.953Z,22.50
2022-08-12T08:00:30.612Z,22.70
2022-08-12T08:02:58.149Z,22.80
2022-08-12T08:05:28.008Z,23.00
2022-08-12T08:07:55.071Z,23.00
2022-08-12T08:10:21.978Z,23.10
2022-08-12T08:12:48.807Z,23.20
2022-08-12T08:15:16.723Z,23.40
2022-08-12T08:18:04.654Z,23.50
2022-08-12T08:20:37.544Z,23.60
2022-08-12T08:23:06.562Z,23.80
2022-08-12T08:25:36.670Z,23.90
2022-08-12T08:28:24.518Z,24.10
2022-08-12T08:30:51.384Z,24.30
2022-08-12T08:33:59.222Z,24.50
2022-08-12T08:38:58.372Z,24.90
2022-08-12T08:42:16.789Z,25.20
2022-08-12T08:44:13.638Z,25.50
2022-08-12T08:46:41.129Z,25.70
2022-08-12T08:49:07.946Z,26.10
2022-08-12T08:51:34.830Z,26.30
2022-08-12T08:56:48.293Z,29.50
2022-08-12T08:59:15.514Z,31.40
2022-08-12T09:01:44.293Z,32.10
2022-08-12T09:05:11.706Z,32.60
2022-08-12T09:06:59.761Z,33.20
2022-08-12T09:12:13.816Z,33.60
2022-08-12T09:14:41.047Z,33.50
2022-08-12T09:17:07.884Z,34.10
2022-08-12T09:19:34.887Z,34.50
2022-08-12T09:22:01.669Z,34.40
2022-08-12T09:24:31.960Z,34.60
2022-08-12T09:26:59.516Z,34.70
2022-08-12T09:30:10.897Z,34.70
2022-08-12T09:32:56.129Z,35.10
2022-08-12T09:35:00.084Z,35.30
2022-08-12T09:37:26.925Z,35.40
2022-08-12T09:40:03.158Z,35.80
2022-08-12T09:42:54.059Z,35.50
2022-08-12T09:46:06.669Z,35.10
2022-08-12T09:48:20.296Z,35.60
2022-08-12T09:50:52.126Z,36.00
2022-08-12T09:53:29.200Z,35.50
2022-08-12T09:56:56.488Z,35.80
2022-08-12T09:58:59.673Z,36.00
2022-08-12T10:01:34.424Z,36.30
2022-08-12T10:04:03.914Z,35.50
2022-08-12T10:06:36.476Z,36.20
2022-08-12T10:09:08.138Z,35.70
2022-08-12T10:12:11.605Z,35.60
2022-08-12T10:14:34.863Z,35.50
2022-08-12T10:17:03.122Z,35.00
2022-08-12T10:19:36.540Z,34.60
2022-08-12T10:22:03.926Z,34.80
2022-08-12T10:24:30.754Z,34.00
2022-08-12T10:26:57.719Z,34.20
2022-08-12T10:30:01.845Z,35.40
2022-08-12T10:32:20.969Z,35.80
2022-08-12T10:34:53.568Z,35.50
2022-08-12T10:38:33.655Z,35.90
2022-08-12T10:40:15.739Z,35.80
2022-08-12T10:42:46.831Z,34.40
2022-08-12T10:45:14.235Z,35.40
2022-08-12T10:48:15.887Z,35.70
2022-08-12T10:50:56.408Z,36.00
2022-08-12T10:53:19.773Z,36.70
2022-08-12T10:55:49.940Z,35.70
2022-08-12T10:58:28.264Z,36.20
2022-08-12T11:04:14.375Z,36.10
2022-08-12T11:04:26.256Z,36.50
2022-08-12T11:07:09.473Z,36.10
2022-08-12T11:09:55.709Z,35.60
2022-08-12T11:12:56.299Z,35.50
2022-08-12T11:14:56.441Z,36.20
2022-08-12T11:17:34.713Z,36.60
2022-08-12T11:20:14.897Z,36.40
2022-08-12T11:22:42.462Z,36.30
2022-08-12T11:25:25.085Z,36.40
2022-08-12T11:28:13.613Z,36.20
2022-08-12T11:34:04.209Z,35.90
2022-08-12T11:36:14.641Z,35.80
2022-08-12T11:38:41.888Z,35.90
2022-08-12T11:41:09.917Z,35.80
2022-08-12T11:43:50.137Z,36.10
2022-08-12T11:46:23.616Z,36.20
2022-08-12T11:48:52.469Z,35.90
2022-08-12T11:51:19.788Z,36.20
2022-08-12T11:53:57.694Z,36.40
2022-08-12T11:56:38.589Z,36.30
2022-08-12T12:02:03.158Z,36.30
2022-08-12T12:04:32.191Z,35.00
2022-08-12T12:07:07.005Z,35.40
2022-08-12T12:09:52.221Z,35.10
2022-08-12T12:12:22.326Z,35.90
2022-08-12T12:14:54.715Z,36.70
2022-08-12T12:17:38.248Z,35.60
2022-08-12T12:22:54.412Z,36.30
2022-08-12T12:25:21.368Z,35.80
2022-08-12T12:28:07.959Z,35.70
2022-08-12T12:30:55.151Z,35.60
2022-08-12T12:36:20.852Z,36.60
2022-08-12T12:38:49.902Z,36.30
2022-08-12T12:41:17.243Z,36.50
2022-08-12T12:43:47.565Z,36.30
2022-08-12T12:46:30.667Z,36.80
2022-08-12T12:48:57.475Z,37.30
2022-08-12T12:51:55.137Z,37.10
2022-08-12T12:54:11.459Z,36.70
2022-08-12T12:56:38.814Z,36.60
2022-08-12T13:01:52.408Z,36.60
2022-08-12T13:04:19.530Z,37.20
2022-08-12T13:06:49.176Z,37.20
2022-08-12T13:12:02.763Z,37.30
2022-08-12T13:14:31.342Z,36.60
2022-08-12T13:19:49.901Z,36.50
2022-08-12T13:22:18.118Z,36.40
2022-08-12T13:24:45.198Z,36.50
2022-08-12T13:30:03.690Z,36.20
2022-08-12T13:32:31.827Z,36.20
2022-08-12T13:35:04.674Z,35.70
2022-08-12T13:37:55.512Z,35.80
2022-08-12T13:40:33.413Z,35.80
2022-08-12T13:43:01.328Z,35.10
2022-08-12T13:45:29.957Z,35.20
2022-08-12T13:48:05.358Z,35.10
2022-08-12T13:50:38.492Z,34.90
2022-08-12T13:53:24.025Z,35.00
2022-08-12T13:55:59.657Z,34.70
2022-08-12T13:58:30.086Z,35.50
2022-08-12T14:00:58.710Z,35.30
2022-08-12T14:03:28.363Z,34.40
2022-08-12T14:06:15.537Z,34.50
2022-08-12T14:08:43.646Z,35.30
2022-08-12T14:11:12.381Z,35.30
2022-08-12T14:14:05.730Z,34.80
2022-08-12T14:16:37.449Z,34.70
2022-08-12T14:19:24.319Z,35.10
2022-08-12T14:22:00.625Z,34.80
2022-08-12T14:24:32.670Z,35.10
2022-08-12T14:27:01.879Z,34.70
2022-08-12T14:29:38.115Z,35.20
2022-08-12T14:32:17.410Z,35.70
2022-08-12T14:34:46.510Z,35.90
2022-08-12T14:37:57.062Z,35.40
2022-08-12T14:40:00.095Z,36.00
2022-08-12T14:42:28.267Z,36.20
2022-08-12T14:44:57.916Z,36.20
2022-08-12T14:47:27.099Z,36.20
2022-08-12T14:50:41.648Z,35.80
2022-08-12T14:54:19.971Z,35.90
2022-08-12T14:58:17.566Z,35.80
2022-08-12T15:00:47.858Z,36.50
2022-08-12T15:06:39.379Z,36.70
2022-08-12T15:08:57.009Z,36.70
2022-08-12T15:11:24.534Z,37.00
2022-08-12T15:14:11.300Z,36.60
2022-08-12T15:16:40.678Z,36.50
2022-08-12T15:20:00.100Z,36.80
2022-08-12T15:22:37.871Z,36.60
2022-08-12T15:24:40.925Z,36.90
2022-08-12T15:27:08.738Z,36.90
2022-08-12T15:32:32.067Z,37.00
2022-08-12T15:35:00.001Z,36.90
2022-08-12T15:37:58.939Z,36.20
2022-08-12T15:40:14.605Z,35.10
2022-08-12T15:42:41.453Z,35.50
2022-08-12T15:45:23.826Z,35.90
2022-08-12T15:47:51.384Z,36.30
2022-08-12T15:50:23.353Z,36.70
2022-08-12T15:52:54.585Z,36.60
2022-08-12T15:55:22.362Z,36.30
2022-08-12T15:57:53.236Z,36.10
2022-08-12T16:00:33.182Z,35.90
2022-08-12T16:03:14.194Z,36.00
2022-08-12T16:06:15.692Z,36.00
2022-08-12T16:08:32.836Z,35.10
2022-08-12T16:10:59.604Z,34.70
2022-08-12T16:13:32.496Z,35.40
2022-08-12T16:16:22.903Z,35.30
2022-08-12T16:18:51.756Z,35.90
2022-08-12T16:21:52.127Z,35.50
2022-08-12T16:24:05.875Z,35.00
2022-08-12T16:26:34.161Z,35.30
2022-08-12T16:29:14.536Z,34.80
2022-08-12T16:31:43.655Z,34.70
2022-08-12T16:34:10.675Z,34.80
2022-08-12T16:36:37.708Z,35.00
2022-08-12T16:39:06.000Z,35.00
2022-08-12T16:41:39.886Z,34.30
2022-08-12T16:44:08.362Z,34.40
2022-08-12T16:46:35.825Z,34.60
2022-08-12T16:49:13.170Z,34.30
2022-08-12T16:51:46.002Z,34.20
2022-08-12T16:54:16.237Z,33.90
2022-08-12T16:56:51.202Z,33.70
2022-08-12T16:59:22.736Z,33.40
2022-08-12T17:01:50.841Z,33.10
2022-08-12T17:04:18.956Z,33.50
2022-08-12T17:06:46.165Z,33.60
2022-08-12T17:09:17.735Z,33.50
2022-08-12T17:11:49.651Z,33.90
2022-08-12T17:17:18.275Z,34.10
2022-08-12T17:20:29.693Z,34.00
2022-08-12T17:22:42.031Z,33.40
2022-08-12T17:25:14.592Z,33.00
2022-08-12T17:27:41.870Z,33.30
2022-08-12T17:30:09.476Z,33.20
2022-08-12T17:32:41.857Z,33.40
2022-08-12T17:35:16.257Z,33.60
2022-08-12T17:37:44.285Z,33.60
2022-08-12T17:40:17.714Z,33.00
2022-08-12T17:43:00.907Z,32.30
2022-08-12T17:45:30.303Z,31.30
2022-08-12T17:48:00.907Z,30.70
2022-08-12T17:50:35.403Z,30.40
2022-08-12T17:53:03.669Z,29.90
2022-08-12T17:55:43.760Z,29.50
2022-08-12T17:58:22.192Z,29.20
2022-08-12T18:04:13.733Z,28.50
2022-08-12T18:06:37.379Z,28.30
2022-08-12T18:09:09.326Z,28.20
2022-08-12T18:12:03.600Z,28.00
2022-08-12T18:14:28.070Z,27.90
2022-08-12T18:16:57.610Z,27.80
2022-08-12T18:19:28.557Z,27.60
2022-08-12T18:22:15.467Z,27.50
2022-08-12T18:24:43.416Z,27.30
2022-08-12T18:27:30.075Z,27.20
2022-08-12T18:29:57.733Z,27.10
2022-08-12T18:32:58.887Z,27.00
2022-08-12T18:35:22.865Z,26.90
2022-08-12T18:38:09.770Z,26.70
2022-08-12T18:40:39.274Z,26.50
2022-08-12T18:43:06.289Z,26.50
2022-08-12T18:45:56.791Z,26.30
2022-08-12T18:48:24.782Z,26.20
2022-08-12T18:51:21.728Z,26.20
2022-08-12T18:54:05.107Z,26.00
2022-08-12T19:00:00.347Z,25.70
2022-08-12T19:02:21.540Z,25.60
2022-08-12T19:04:53.915Z,25.50
2022-08-12T19:07:29.815Z,25.50
2022-08-12T19:10:13.548Z,25.40
2022-08-12T19:12:42.502Z,25.30
2022-08-12T19:15:22.580Z,25.20
2022-08-12T19:18:00.470Z,25.10
2022-08-12T19:20:28.679Z,25.10
2022-08-12T19:23:02.219Z,25.00
2022-08-12T19:26:00.981Z,24.90
2022-08-12T19:28:30.391Z,24.80
2022-08-12T19:31:19.841Z,24.70
2022-08-12T19:34:06.449Z,24.60
2022-08-12T19:36:35.719Z,24.50
2022-08-12T19:39:02.617Z,24.40
2022-08-12T19:42:01.426Z,24.30
2022-08-12T19:47:17.688Z,24.00
2022-08-12T19:49:56.829Z,23.90
2022-08-12T19:52:32.259Z,23.80
2022-08-12T19:55:00.102Z,23.70
2022-08-12T19:57:27.522Z,23.40
2022-08-12T20:00:03.768Z,23.50
2022-08-12T20:02:32.981Z,23.40
2022-08-12T20:06:03.159Z,23.30
2022-08-12T20:07:59.220Z,23.30
2022-08-12T20:10:35.497Z,23.30
2022-08-12T20:13:18.084Z,23.30
2022-08-12T20:15:46.396Z,23.30
2022-08-12T20:18:19.147Z,23.40
2022-08-12T20:21:07.659Z,23.60
2022-08-12T20:23:59.597Z,23.50
2022-08-12T20:26:28.115Z,23.50
2022-08-12T20:28:54.912Z,23.60
2022-08-12T20:34:09.098Z,23.60
2022-08-12T20:36:44.123Z,23.50
2022-08-12T20:39:37.132Z,23.40
2022-08-12T20:42:02.464Z,23.30
2022-08-12T20:44:29.679Z,23.20
2022-08-12T20:46:58.246Z,23.10
2022-08-12T20:49:25.312Z,23.10
2022-08-12T20:51:55.591Z,23.10
2022-08-12T20:54:23.007Z,22.90
2022-08-12T20:57:01.382Z,22.90
2022-08-12T20:59:31.704Z,22.90
2022-08-12T21:04:47.236Z,22.70
2022-08-12T21:07:20.398Z,22.70
2022-08-12T21:09:51.909Z,22.60
2022-08-12T21:12:31.167Z,22.70
2022-08-12T21:15:16.672Z,22.60
2022-08-12T21:18:08.057Z,22.60
2022-08-12T21:20:37.042Z,22.60
2022-08-12T21:23:06.278Z,22.60
2022-08-12T21:25:44.102Z,22.50
2022-08-12T21:28:12.576Z,22.50
2022-08-12T21:30:39.836Z,22.50
2022-08-12T21:33:10.729Z,22.40
2022-08-12T21:35:41.631Z,22.40
2022-08-12T21:38:08.432Z,22.30
2022-08-12T21:40:37.655Z,22.30
2022-08-12T21:43:19.722Z,22.30
2022-08-12T21:46:00.562Z,22.20
2022-08-12T21:51:23.398Z,22.20
2022-08-12T21:54:06.425Z,22.20
2022-08-12T21:56:35.261Z,22.20
2022-08-12T21:59:03.708Z,22.10
2022-08-12T22:01:34.137Z,22.10
2022-08-12T22:04:12.702Z,22.00
2022-08-12T22:06:43.299Z,22.10
2022-08-12T22:09:15.928Z,22.00
2022-08-12T22:11:49.077Z,22.00
2022-08-12T22:14:24.017Z,21.90
2022-08-12T22:16:53.076Z,21.90
2022-08-12T22:19:21.155Z,21.80
2022-08-12T22:21:53.565Z,21.70
2022-08-12T22:24:25.979Z,21.70
2022-08-12T22:26:54.686Z,21.60
2022-08-12T22:29:21.979Z,21.60
2022-08-12T22:31:49.720Z,21.50
2022-08-12T22:34:18.243Z,21.50
2022-08-12T22:36:45.755Z,21.50
2022-08-12T22:39:15.725Z,21.50
2022-08-12T22:41:43.288Z,21.40
2022-08-12T22:46:59.242Z,21.40
2022-08-12T22:49:37.218Z,21.30
2022-08-12T22:55:05.574Z,21.20
2022-08-12T22:57:54.439Z,21.20
2022-08-12T23:00:24.409Z,21.10
2022-08-12T23:02:58.375Z,21.10
2022-08-12T23:05:57.441Z,21.00
2022-08-12T23:08:17.786Z,20.90
2022-08-12T23:10:45.225Z,20.90
2022-08-12T23:13:12.103Z,20.90
2022-08-12T23:15:41.322Z,20.90
2022-08-12T23:18:16.780Z,20.80
2022-08-12T23:20:44.180Z,20.80
2022-08-12T23:23:11.800Z,20.80
2022-08-12T23:25:55.405Z,20.90
2022-08-12T23:28:29.248Z,20.80
2022-08-12T23:30:57.138Z,20.80
2022-08-12T23:34:01.843Z,20.70
2022-08-12T23:36:12.572Z,20.70
2022-08-12T23:38:39.605Z,20.60
2022-08-12T23:41:12.978Z,20.60
2022-08-12T23:43:44.305Z,20.60
2022-08-12T23:46:18.563Z,20.60
2022-08-12T23:48:50.464Z,20.60
2022-08-12T23:51:21.997Z,20.60
2022-08-12T23:53:59.832Z,20.60
2022-08-12T23:56:28.566Z,20.60
2022-08-12T23:58:58.714Z,20.50
